モントリオール/トルドー の空港の天気 - METARとTAF

モントリオール・ピエール・エリオット・トルドー国際空港 ( CYUL / YUL ) - カナダ ケベック州モントリオール
飛行場実況気象(Metar)
観測時間07/01 05:00 EDT (07/01 09:00 UTC)
風向・風速東南東 2m/s
視程10km以上
天気現象
全天の4割程度の雲 雲底高度 4880m
全天を覆う雲 雲底高度 6400m
気温19℃
湿度78%
気圧1012hPa
METARCYUL 010900Z 12003KT 15SM SCT160 OVC210 19/15 A2988 RMK AC3CC5 SLP120 DENSITY ALT 700FT
過去の天気等 Google飛行場航空写真 Wunderground天気予報

過去48時間のMETAR

飛行場予報(TAF)
発表時間: 7/01 04:40 EDT (7/01 08:40 UTC)
予報対象時間: 1日5時 EDT ~ 2日2時 EDT
風向・風速不定 2m/s
視程10km以上
全天の4割程度の雲 雲底高度 1830m
全天の8割程度の雲 雲底高度 4270m
1日5時 EDT ~ 1日7時 EDT に徐々に
風向・風速南西 5m/s
1日12時 EDT から
風向・風速西 6m/s 瞬間風速 11m/s
視程10km以上
全天の4割程度の雲 雲底高度 1220m
全天の8割程度の雲 雲底高度 2130m
1日12時 EDT ~ 1日14時 EDT に徐々に
風向・風速西 8m/s 瞬間風速 13m/s
1日16時 EDT から
風向・風速西 8m/s 瞬間風速 13m/s
視程10km以上
全天の4割程度の雲 雲底高度 1220m
全天の8割程度の雲 雲底高度 2130m
1日16時 EDT ~ 1日21時 EDT に一時的に
視程10km以上
天気現象弱いしゅう雨 周辺で雷
全天の8割程度の積乱雲 雲底高度 1220m
全天を覆う雲 雲底高度 2130m
1日21時 EDT から
風向・風速西 6m/s 瞬間風速 11m/s
視程10km以上
全天の8割程度の雲 雲底高度 1220m
1日21時 EDT ~ 1日23時 EDT に徐々に
風向・風速西 4m/s
1日23時 EDT から
風向・風速西 4m/s
視程10km以上
全天の4割程度の雲 雲底高度 1520m
TAF CYUL 010840Z 0109/0206 VRB03KT P6SM SCT060 BKN140
BECMG 0109/0111 22010KT
FM011600 26012G22KT P6SM SCT040 BKN070
BECMG 0116/0118 26015G25KT
FM012000 26015G25KT P6SM SCT040 BKN070
TEMPO 0120/0201 P6SM -SHRA VCTS BKN040CB OVC070
FM020100 26012G22KT P6SM BKN040
BECMG 0201/0203 26008KT
FM020300 26008KT P6SM SCT050 RMK NXT FCST BY 011200Z